Time;durP1;ratioP1;P1;durP2;ratioP2;P2;SDS_P1;SDS_P2;PMS_P1;PMS_P2;Temp;Humidity;BMP_temperature;BMP_pressure;BME280_temperature;BME280_humidity;BME280_pressure;Samples;Min_cycle;Max_cycle;Signal;HPM_P1;HPM_P2
2020/12/01 00:01:05;;;;;;;47.83;24.13;;;;;;;;;;5075742;28;20456;-68
2020/12/01 00:15:47;;;;;;;50.30;22.77;;;;;;;;;;5066406;28;20426;-68
2020/12/01 00:18:14;;;;;;;41.03;23.53;;;;;;;;;;5073330;28;20484;-69
2020/12/01 00:20:40;;;;;;;40.70;21.17;;;;;;;;;;5080541;28;21068;-69
2020/12/01 00:23:07;;;;;;;47.43;24.40;;;;;;;;;;5076087;28;20457;-68
2020/12/01 00:25:33;;;;;;;41.37;21.77;;;;;;;;;;5072929;28;20460;-68
2020/12/01 00:28:00;;;;;;;45.23;25.40;;;;;;;;;;5071289;28;20447;-68
2020/12/01 00:30:27;;;;;;;47.00;25.87;;;;;;;;;;5071855;28;20475;-68
2020/12/01 00:32:54;;;;;;;43.07;23.93;;;;;;;;;;5073029;28;21052;-68
2020/12/01 00:35:23;;;;;;;41.93;24.83;;;;;;;;;;5074554;28;20470;-68
2020/12/01 00:37:49;;;;;;;54.37;27.10;;;;;;;;;;5076177;28;20472;-68
2020/12/01 00:40:16;;;;;;;47.17;26.07;;;;;;;;;;5072050;28;20479;-68
2020/12/01 00:42:42;;;;;;;46.23;23.30;;;;;;;;;;5072540;28;20829;-68
2020/12/01 00:45:10;;;;;;;45.50;24.20;;;;;;;;;;5076019;28;21114;-68
2020/12/01 00:47:37;;;;;;;41.13;24.50;;;;;;;;;;5074297;28;20455;-68
2020/12/01 00:50:05;;;;;;;52.33;25.00;;;;;;;;;;5077903;28;21298;-68
2020/12/01 00:52:31;;;;;;;40.03;22.60;;;;;;;;;;5074591;28;20830;-68
2020/12/01 00:54:58;;;;;;;43.03;26.17;;;;;;;;;;5076253;28;20471;-68
2020/12/01 00:57:25;;;;;;;45.67;26.60;;;;;;;;;;5075881;28;20849;-68
2020/12/01 00:59:51;;;;;;;49.30;25.13;;;;;;;;;;5068883;28;20491;-68
2020/12/01 01:02:18;;;;;;;30.60;17.63;;;;;;;;;;5080105;28;20562;-68
2020/12/01 01:04:45;;;;;;;42.13;22.30;;;;;;;;;;5077949;28;20478;-69
2020/12/01 01:07:12;;;;;;;43.37;23.70;;;;;;;;;;5071574;28;20464;-68
2020/12/01 01:09:39;;;;;;;47.93;26.03;;;;;;;;;;5072557;28;20472;-68
2020/12/01 01:12:06;;;;;;;55.53;24.00;;;;;;;;;;5069855;28;20456;-68
2020/12/01 01:14:32;;;;;;;48.00;23.70;;;;;;;;;;5073472;28;20986;-68
2020/12/01 01:16:59;;;;;;;49.30;24.83;;;;;;;;;;5070296;28;20464;-68
2020/12/01 01:19:25;;;;;;;43.33;24.57;;;;;;;;;;5066089;28;20484;-68
2020/12/01 01:21:52;;;;;;;44.07;23.70;;;;;;;;;;5072646;28;20452;-68
2020/12/01 01:24:19;;;;;;;38.43;21.77;;;;;;;;;;5071511;28;20805;-68
2020/12/01 01:26:49;;;;;;;45.80;23.13;;;;;;;;;;5070887;28;20455;-68
2020/12/01 01:29:16;;;;;;;34.67;20.87;;;;;;;;;;5073762;28;21191;-68
2020/12/01 01:31:43;;;;;;;40.27;19.00;;;;;;;;;;5071482;28;20456;-68
2020/12/01 01:34:09;;;;;;;42.83;22.20;;;;;;;;;;5070906;28;20463;-68
2020/12/01 01:36:36;;;;;;;43.17;23.70;;;;;;;;;;5067750;28;20463;-68
2020/12/01 01:39:05;;;;;;;37.50;22.37;;;;;;;;;;5072612;28;20491;-68
2020/12/01 01:41:33;;;;;;;50.50;24.30;;;;;;;;;;5070623;28;20460;-68
2020/12/01 01:44:00;;;;;;;45.47;24.60;;;;;;;;;;5074848;28;20466;-68
2020/12/01 01:46:35;;;;;;;46.67;23.17;;;;;;;;;;5072598;28;20464;-68
2020/12/01 01:49:02;;;;;;;46.73;25.70;;;;;;;;;;5071185;28;20550;-68
2020/12/01 01:51:28;;;;;;;47.73;23.50;;;;;;;;;;5073433;28;20465;-68
2020/12/01 01:53:56;;;;;;;60.00;27.93;;;;;;;;;;5075958;28;20479;-68
2020/12/01 01:56:24;;;;;;;46.57;25.00;;;;;;;;;;5066664;28;20463;-68
2020/12/01 01:58:52;;;;;;;48.00;24.80;;;;;;;;;;5070672;28;20484;-68
2020/12/01 02:01:22;;;;;;;46.47;26.07;;;;;;;;;;5071803;28;20471;-69
2020/12/01 02:03:50;;;;;;;48.93;24.40;;;;;;;;;;5070086;28;20826;-68
2020/12/01 02:06:18;;;;;;;43.13;22.50;;;;;;;;;;5070170;28;20473;-68
2020/12/01 02:08:46;;;;;;;45.67;23.60;;;;;;;;;;5072923;28;20477;-68
2020/12/01 02:11:13;;;;;;;48.20;22.27;;;;;;;;;;5074255;28;20824;-68
2020/12/01 02:13:43;;;;;;;47.00;24.23;;;;;;;;;;5082878;28;20457;-68
2020/12/01 02:16:11;;;;;;;51.93;25.57;;;;;;;;;;5072510;28;20464;-68
2020/12/01 02:18:38;;;;;;;49.20;25.70;;;;;;;;;;5071350;28;20484;-68
2020/12/01 02:21:22;;;;;;;61.23;27.70;;;;;;;;;;5074281;28;20463;-68
2020/12/01 02:23:49;;;;;;;52.23;25.50;;;;;;;;;;5072939;28;20457;-68
2020/12/01 02:26:16;;;;;;;47.33;25.43;;;;;;;;;;5071420;28;20471;-68
2020/12/01 02:28:43;;;;;;;54.97;22.80;;;;;;;;;;5072653;28;20510;-68
2020/12/01 02:31:10;;;;;;;45.23;23.20;;;;;;;;;;5074781;28;20459;-68
2020/12/01 02:33:36;;;;;;;42.77;22.67;;;;;;;;;;5073575;28;20458;-68
2020/12/01 02:36:03;;;;;;;49.70;23.90;;;;;;;;;;5073329;28;20448;-68
2020/12/01 02:38:29;;;;;;;48.67;23.00;;;;;;;;;;5074822;28;20503;-68
2020/12/01 02:40:56;;;;;;;54.83;27.57;;;;;;;;;;5072661;28;20452;-68
2020/12/01 02:43:23;;;;;;;44.33;24.37;;;;;;;;;;5073431;28;20639;-68
2020/12/01 02:45:50;;;;;;;46.83;24.50;;;;;;;;;;5074400;28;20455;-68
2020/12/01 02:48:16;;;;;;;55.73;27.70;;;;;;;;;;5070364;28;20506;-68
2020/12/01 02:50:43;;;;;;;46.37;25.30;;;;;;;;;;5073189;28;20460;-68
2020/12/01 02:53:10;;;;;;;51.40;26.13;;;;;;;;;;5071246;28;20808;-67
2020/12/01 02:55:36;;;;;;;47.77;23.77;;;;;;;;;;5082715;28;20475;-67
2020/12/01 02:58:03;;;;;;;44.20;23.93;;;;;;;;;;5068769;28;20456;-68
2020/12/01 03:00:30;;;;;;;54.83;24.73;;;;;;;;;;5072773;28;20471;-67
2020/12/01 03:02:57;;;;;;;54.57;25.30;;;;;;;;;;5070971;28;20460;-68
2020/12/01 03:05:24;;;;;;;46.40;25.00;;;;;;;;;;5074695;28;20530;-68
2020/12/01 03:07:50;;;;;;;44.17;23.73;;;;;;;;;;5072651;28;20464;-67
2020/12/01 03:10:17;;;;;;;37.43;17.87;;;;;;;;;;5078486;28;21026;-70
2020/12/01 03:12:43;;;;;;;51.63;26.00;;;;;;;;;;5076996;28;20461;-67
2020/12/01 03:15:12;;;;;;;45.17;21.57;;;;;;;;;;5083851;28;20464;-67
2020/12/01 03:17:40;;;;;;;57.00;26.33;;;;;;;;;;5076846;28;20456;-68
2020/12/01 03:20:07;;;;;;;55.20;25.97;;;;;;;;;;5075325;28;20499;-68
2020/12/01 03:22:33;;;;;;;51.30;24.33;;;;;;;;;;5071596;28;20512;-67
2020/12/01 03:25:00;;;;;;;54.37;25.30;;;;;;;;;;5075716;28;20463;-68
2020/12/01 03:27:26;;;;;;;48.60;22.90;;;;;;;;;;5075081;28;20455;-68
2020/12/01 03:29:53;;;;;;;44.17;21.70;;;;;;;;;;5075671;28;20476;-67
2020/12/01 03:32:22;;;;;;;51.23;25.67;;;;;;;;;;5073013;28;20842;-67
2020/12/01 03:34:50;;;;;;;34.20;17.13;;;;;;;;;;5070573;28;20448;-67
2020/12/01 03:37:16;;;;;;;55.33;26.00;;;;;;;;;;5075001;28;20825;-67
2020/12/01 03:39:43;;;;;;;51.97;25.37;;;;;;;;;;5076440;28;20480;-68
2020/12/01 03:42:10;;;;;;;56.40;24.77;;;;;;;;;;5090844;28;20478;-68
2020/12/01 03:44:36;;;;;;;53.13;25.00;;;;;;;;;;5083495;28;20816;-68
2020/12/01 03:47:03;;;;;;;51.63;27.07;;;;;;;;;;5092365;28;20452;-68
2020/12/01 03:49:30;;;;;;;59.70;25.60;;;;;;;;;;5088049;28;20475;-68
2020/12/01 03:51:57;;;;;;;54.80;26.30;;;;;;;;;;5095811;28;20528;-66
2020/12/01 03:54:24;;;;;;;52.43;26.63;;;;;;;;;;5087684;28;20822;-68
2020/12/01 03:56:50;;;;;;;61.37;26.43;;;;;;;;;;5086164;28;20459;-68
2020/12/01 03:59:17;;;;;;;52.97;23.40;;;;;;;;;;5085199;28;20498;-67
2020/12/01 04:01:43;;;;;;;55.27;26.83;;;;;;;;;;5077489;28;20830;-67
2020/12/01 04:04:10;;;;;;;49.87;23.70;;;;;;;;;;5080696;28;20471;-67
2020/12/01 04:06:37;;;;;;;53.10;23.60;;;;;;;;;;5086726;28;20455;-67
2020/12/01 04:09:05;;;;;;;50.70;24.87;;;;;;;;;;5087422;28;20468;-69
2020/12/01 04:11:31;;;;;;;51.90;25.23;;;;;;;;;;5089113;28;20505;-68
2020/12/01 04:13:58;;;;;;;44.67;23.37;;;;;;;;;;5093348;28;20452;-68
2020/12/01 04:16:25;;;;;;;45.50;22.80;;;;;;;;;;5090315;28;20511;-68
2020/12/01 04:18:51;;;;;;;58.20;24.87;;;;;;;;;;5085586;28;20491;-68
2020/12/01 04:21:18;;;;;;;52.07;25.53;;;;;;;;;;5081219;28;20455;-68
2020/12/01 04:23:51;;;;;;;47.43;24.40;;;;;;;;;;5089009;28;20451;-68
2020/12/01 04:26:18;;;;;;;48.27;27.07;;;;;;;;;;5095734;28;20947;-67
2020/12/01 04:28:45;;;;;;;47.47;25.03;;;;;;;;;;5095795;28;20467;-68
2020/12/01 04:31:11;;;;;;;52.53;25.60;;;;;;;;;;5099752;28;20826;-67
2020/12/01 04:33:38;;;;;;;56.37;27.47;;;;;;;;;;5090242;28;20459;-67
2020/12/01 04:36:05;;;;;;;41.37;21.47;;;;;;;;;;5091866;28;20436;-68
2020/12/01 04:38:32;;;;;;;45.47;23.07;;;;;;;;;;5079783;28;20489;-68
2020/12/01 04:40:58;;;;;;;49.67;26.57;;;;;;;;;;5085789;28;20463;-68
2020/12/01 04:43:31;;;;;;;58.57;26.90;;;;;;;;;;5081615;28;20459;-68
2020/12/01 04:45:58;;;;;;;53.30;26.43;;;;;;;;;;5093735;28;20940;-68
2020/12/01 04:48:31;;;;;;;47.63;23.50;;;;;;;;;;5080289;28;20547;-68
2020/12/01 04:51:00;;;;;;;48.33;26.30;;;;;;;;;;5088058;28;21015;-68
2020/12/01 04:53:34;;;;;;;47.10;21.97;;;;;;;;;;5085580;28;20451;-68
2020/12/01 04:56:17;;;;;;;48.50;26.50;;;;;;;;;;5083950;28;20947;-68
2020/12/01 04:59:02;;;;;;;51.50;22.13;;;;;;;;;;5073783;28;20492;-68
2020/12/01 05:01:41;;;;;;;55.40;24.00;;;;;;;;;;5074532;28;20460;-68
2020/12/01 05:04:14;;;;;;;45.47;22.60;;;;;;;;;;5090258;28;20460;-68
2020/12/01 05:06:57;;;;;;;51.13;25.40;;;;;;;;;;5080498;28;20444;-68
2020/12/01 05:09:27;;;;;;;55.27;27.03;;;;;;;;;;5081286;28;20467;-68
2020/12/01 05:11:56;;;;;;;47.27;22.33;;;;;;;;;;5083505;28;20462;-68
2020/12/01 05:14:26;;;;;;;56.03;26.43;;;;;;;;;;5076590;28;20456;-68
2020/12/01 05:17:03;;;;;;;49.80;25.27;;;;;;;;;;5084487;28;20477;-68
2020/12/01 05:19:36;;;;;;;44.30;22.90;;;;;;;;;;5085101;28;21033;-68
2020/12/01 05:22:03;;;;;;;48.77;24.40;;;;;;;;;;5085591;28;20451;-68
2020/12/01 05:24:43;;;;;;;46.13;22.57;;;;;;;;;;5082394;28;20455;-68
2020/12/01 05:27:20;;;;;;;45.23;21.40;;;;;;;;;;5082223;28;20444;-68
2020/12/01 05:29:46;;;;;;;51.67;26.03;;;;;;;;;;5081275;28;20460;-68
2020/12/01 05:32:23;;;;;;;47.73;25.37;;;;;;;;;;5077368;28;20464;-68
2020/12/01 05:34:50;;;;;;;44.13;22.73;;;;;;;;;;5081985;28;20919;-68
2020/12/01 05:37:17;;;;;;;53.33;27.50;;;;;;;;;;5075211;28;20453;-68
2020/12/01 05:39:45;;;;;;;51.97;24.73;;;;;;;;;;5082620;28;20947;-69
2020/12/01 05:42:15;;;;;;;46.30;24.37;;;;;;;;;;5082414;28;20834;-69
2020/12/01 05:44:42;;;;;;;42.67;22.53;;;;;;;;;;5087762;28;20448;-68
2020/12/01 05:47:10;;;;;;;57.87;29.03;;;;;;;;;;5087914;28;20449;-69
2020/12/01 05:49:39;;;;;;;59.23;27.60;;;;;;;;;;5091640;28;20763;-68
2020/12/01 05:52:10;;;;;;;49.53;25.23;;;;;;;;;;5089241;28;20459;-69
2020/12/01 05:54:38;;;;;;;51.70;24.93;;;;;;;;;;5082606;28;20452;-69
2020/12/01 05:57:16;;;;;;;54.37;27.57;;;;;;;;;;5079784;28;20563;-69
2020/12/01 05:59:51;;;;;;;49.53;24.33;;;;;;;;;;5079779;28;20995;-69
2020/12/01 06:02:18;;;;;;;52.37;25.07;;;;;;;;;;5096931;28;20520;-69
2020/12/01 06:04:46;;;;;;;50.93;25.60;;;;;;;;;;5078144;28;20471;-69
2020/12/01 06:07:14;;;;;;;54.80;25.87;;;;;;;;;;5077405;28;21097;-69
2020/12/01 06:09:48;;;;;;;58.00;26.50;;;;;;;;;;5083988;28;20471;-69
2020/12/01 06:12:20;;;;;;;48.03;25.83;;;;;;;;;;5076056;28;20460;-69
2020/12/01 06:14:52;;;;;;;54.43;26.77;;;;;;;;;;5069666;28;20464;-69
2020/12/01 06:17:22;;;;;;;55.77;26.20;;;;;;;;;;5073531;28;20444;-70
2020/12/01 06:19:52;;;;;;;49.90;25.27;;;;;;;;;;5075574;28;20494;-70
2020/12/01 06:22:44;;;;;;;50.37;25.83;;;;;;;;;;5078429;28;20459;-70
2020/12/01 06:25:22;;;;;;;48.53;23.20;;;;;;;;;;5083745;28;20823;-70
2020/12/01 06:28:08;;;;;;;52.83;24.60;;;;;;;;;;5080638;28;20467;-69
2020/12/01 06:30:42;;;;;;;40.97;24.27;;;;;;;;;;5074567;28;20842;-70
2020/12/01 06:33:23;;;;;;;48.67;25.53;;;;;;;;;;5074616;28;20456;-70
2020/12/01 06:36:10;;;;;;;41.17;23.10;;;;;;;;;;5081743;28;20460;-70
2020/12/01 06:38:46;;;;;;;38.93;21.60;;;;;;;;;;5086207;28;20478;-70
2020/12/01 06:41:14;;;;;;;40.87;22.33;;;;;;;;;;5080418;28;20495;-70
2020/12/01 06:43:42;;;;;;;36.90;20.43;;;;;;;;;;5083933;28;20455;-70
2020/12/01 06:46:22;;;;;;;39.23;21.93;;;;;;;;;;5085989;28;20803;-68
2020/12/01 06:48:49;;;;;;;33.63;18.83;;;;;;;;;;5084035;28;20475;-68
2020/12/01 06:51:18;;;;;;;36.83;18.90;;;;;;;;;;5078444;28;20463;-68
2020/12/01 06:53:45;;;;;;;31.03;19.30;;;;;;;;;;5084150;28;20451;-68
2020/12/01 06:56:17;;;;;;;39.50;21.37;;;;;;;;;;5086756;28;20440;-68
2020/12/01 06:58:44;;;;;;;34.23;20.03;;;;;;;;;;5089334;28;20483;-68
2020/12/01 07:01:28;;;;;;;34.57;18.93;;;;;;;;;;5081551;28;20455;-68
2020/12/01 07:04:14;;;;;;;30.73;17.83;;;;;;;;;;5083240;28;20471;-69
2020/12/01 07:06:44;;;;;;;38.00;20.90;;;;;;;;;;5089100;28;20443;-69
2020/12/01 07:09:13;;;;;;;41.50;21.83;;;;;;;;;;5090116;28;20489;-69
2020/12/01 07:11:48;;;;;;;36.73;19.60;;;;;;;;;;5080876;28;20936;-69
2020/12/01 07:14:18;;;;;;;37.10;18.80;;;;;;;;;;5076888;28;20475;-69
2020/12/01 07:16:46;;;;;;;34.33;19.27;;;;;;;;;;5080910;28;20453;-69
2020/12/01 07:19:16;;;;;;;32.90;18.40;;;;;;;;;;5085052;28;20487;-68
2020/12/01 07:21:46;;;;;;;27.30;17.43;;;;;;;;;;5089576;28;20456;-69
2020/12/01 07:24:20;;;;;;;36.17;18.93;;;;;;;;;;5083769;28;20453;-69
2020/12/01 07:26:50;;;;;;;32.17;17.27;;;;;;;;;;5083483;28;20483;-69
2020/12/01 07:29:33;;;;;;;29.73;19.37;;;;;;;;;;5086205;28;20487;-69
2020/12/01 07:32:10;;;;;;;34.20;18.07;;;;;;;;;;5075923;28;20948;-69
2020/12/01 07:34:37;;;;;;;30.13;17.50;;;;;;;;;;5087882;28;20460;-69
2020/12/01 07:37:31;;;;;;;34.93;18.50;;;;;;;;;;5093102;28;20447;-69
2020/12/01 07:39:59;;;;;;;33.13;17.73;;;;;;;;;;5026098;28;20502;-69
2020/12/01 07:42:29;;;;;;;32.57;18.33;;;;;;;;;;5096373;28;20482;-69
2020/12/01 07:44:56;;;;;;;28.43;18.53;;;;;;;;;;5091334;28;20448;-68
2020/12/01 07:47:24;;;;;;;30.70;17.70;;;;;;;;;;5089306;28;20857;-69
2020/12/01 07:49:56;;;;;;;30.23;18.00;;;;;;;;;;5083307;28;20486;-69
2020/12/01 07:52:27;;;;;;;30.47;17.83;;;;;;;;;;5093075;28;20443;-69
2020/12/01 07:54:59;;;;;;;29.00;19.00;;;;;;;;;;5085856;28;20455;-69
2020/12/01 07:57:26;;;;;;;31.17;19.40;;;;;;;;;;5088651;28;20456;-68
2020/12/01 07:59:54;;;;;;;26.47;16.40;;;;;;;;;;5098710;28;20487;-68
2020/12/01 08:02:24;;;;;;;24.60;15.50;;;;;;;;;;5088136;28;20452;-68
2020/12/01 08:04:58;;;;;;;26.00;15.80;;;;;;;;;;5089893;28;20439;-68
2020/12/01 08:07:25;;;;;;;26.17;16.27;;;;;;;;;;5089150;28;20451;-68
2020/12/01 08:10:00;;;;;;;27.90;16.60;;;;;;;;;;5085675;28;20464;-69
2020/12/01 08:12:29;;;;;;;25.23;16.67;;;;;;;;;;5074501;28;20456;-68
2020/12/01 08:14:57;;;;;;;29.40;18.33;;;;;;;;;;5087344;28;20471;-69
2020/12/01 08:17:26;;;;;;;26.10;15.80;;;;;;;;;;5088811;28;20448;-68
2020/12/01 08:19:53;;;;;;;28.17;17.33;;;;;;;;;;5088762;28;20487;-69
2020/12/01 08:22:21;;;;;;;24.17;16.10;;;;;;;;;;5091210;28;20923;-68
2020/12/01 08:24:48;;;;;;;25.77;16.67;;;;;;;;;;5083140;28;20445;-68
2020/12/01 08:27:18;;;;;;;25.10;14.50;;;;;;;;;;5083475;28;20459;-69
2020/12/01 08:29:45;;;;;;;22.13;15.17;;;;;;;;;;5084492;28;20484;-68
2020/12/01 08:32:21;;;;;;;28.90;15.77;;;;;;;;;;5082347;28;20447;-68
2020/12/01 08:34:51;;;;;;;23.10;15.10;;;;;;;;;;5078824;28;20579;-68
2020/12/01 08:37:24;;;;;;;19.60;13.30;;;;;;;;;;5082684;28;20451;-68
2020/12/01 08:39:58;;;;;;;25.90;14.30;;;;;;;;;;5087236;28;20483;-69
2020/12/01 08:42:39;;;;;;;22.20;13.50;;;;;;;;;;5082853;28;20532;-68
2020/12/01 08:45:26;;;;;;;22.97;13.73;;;;;;;;;;5084573;28;20447;-69
2020/12/01 08:47:58;;;;;;;24.40;15.80;;;;;;;;;;5094174;28;20445;-68
2020/12/01 08:50:26;;;;;;;23.20;15.57;;;;;;;;;;5091293;28;20491;-69
2020/12/01 08:53:03;;;;;;;25.80;16.83;;;;;;;;;;5078389;28;20443;-68
2020/12/01 08:55:31;;;;;;;22.10;14.97;;;;;;;;;;5084391;28;20458;-68
2020/12/01 08:58:05;;;;;;;18.40;12.53;;;;;;;;;;5082020;28;20837;-68
2020/12/01 09:00:34;;;;;;;18.70;12.87;;;;;;;;;;5078314;28;20484;-68
2020/12/01 09:03:07;;;;;;;22.40;13.70;;;;;;;;;;5079719;28;20478;-68
2020/12/01 09:05:35;;;;;;;24.27;14.07;;;;;;;;;;5078810;28;20441;-68
2020/12/01 09:08:12;;;;;;;20.27;13.80;;;;;;;;;;5094072;28;20496;-68
2020/12/01 09:10:39;;;;;;;16.93;12.53;;;;;;;;;;5089477;28;20877;-68
2020/12/01 09:13:14;;;;;;;17.90;13.50;;;;;;;;;;5079032;28;20532;-68
2020/12/01 09:15:50;;;;;;;17.80;12.17;;;;;;;;;;5082458;28;20987;-67
2020/12/01 09:18:39;;;;;;;16.10;12.17;;;;;;;;;;5082184;28;20459;-68
2020/12/01 09:23:59;;;;;;;18.63;11.87;;;;;;;;;;5082061;28;20605;-68
2020/12/01 09:26:25;;;;;;;16.50;11.00;;;;;;;;;;5072055;28;20448;-67
2020/12/01 09:28:53;;;;;;;15.93;10.53;;;;;;;;;;5084510;28;20463;-68
2020/12/01 09:31:20;;;;;;;16.20;9.70;;;;;;;;;;5076350;28;20449;-68
2020/12/01 09:33:48;;;;;;;11.90;9.33;;;;;;;;;;5080337;28;21111;-67
2020/12/01 09:36:18;;;;;;;13.40;10.30;;;;;;;;;;5084710;28;20448;-67
2020/12/01 09:38:45;;;;;;;16.77;11.50;;;;;;;;;;5084057;28;20455;-68
2020/12/01 09:41:15;;;;;;;16.73;11.87;;;;;;;;;;5089326;28;20449;-68
2020/12/01 09:43:45;;;;;;;19.80;12.63;;;;;;;;;;5092351;28;20467;-68
2020/12/01 09:46:13;;;;;;;15.03;10.97;;;;;;;;;;5075182;28;20444;-68
2020/12/01 09:48:41;;;;;;;18.43;12.90;;;;;;;;;;5076384;28;20533;-68
2020/12/01 09:51:09;;;;;;;17.27;12.30;;;;;;;;;;5083277;28;22470;-68
2020/12/01 09:53:56;;;;;;;16.00;11.80;;;;;;;;;;5081161;28;20485;-68
2020/12/01 09:56:43;;;;;;;21.20;12.30;;;;;;;;;;5076793;28;20461;-67
2020/12/01 10:05:01;;;;;;;18.37;11.63;;;;;;;;;;5090018;28;20465;-67
2020/12/01 10:13:09;;;;;;;14.30;10.10;;;;;;;;;;5082920;28;20435;-68
2020/12/01 10:15:57;;;;;;;12.20;9.17;;;;;;;;;;5078408;28;20896;-68
2020/12/01 10:18:46;;;;;;;14.33;9.80;;;;;;;;;;5079396;28;20457;-68
2020/12/01 10:32:25;;;;;;;15.83;11.63;;;;;;;;;;5080732;28;20427;-67
2020/12/01 10:34:56;;;;;;;16.07;10.37;;;;;;;;;;5089197;28;21019;-68
2020/12/01 10:37:22;;;;;;;17.23;11.57;;;;;;;;;;5092209;28;20451;-68
2020/12/01 10:39:50;;;;;;;15.23;11.70;;;;;;;;;;5086445;28;20480;-66
2020/12/01 10:42:17;;;;;;;14.27;10.17;;;;;;;;;;5081225;28;20462;-68
2020/12/01 10:44:43;;;;;;;13.17;9.43;;;;;;;;;;5082115;28;20480;-67
2020/12/01 10:47:10;;;;;;;14.77;9.97;;;;;;;;;;5098840;28;20819;-68
2020/12/01 10:49:37;;;;;;;14.57;10.93;;;;;;;;;;5086696;28;20473;-68
2020/12/01 10:52:04;;;;;;;18.90;11.43;;;;;;;;;;5085042;28;20458;-66
2020/12/01 10:54:31;;;;;;;17.33;11.20;;;;;;;;;;5089143;28;20452;-68
2020/12/01 10:56:58;;;;;;;18.67;10.73;;;;;;;;;;5096889;28;20495;-66
2020/12/01 10:59:25;;;;;;;25.13;12.60;;;;;;;;;;5081635;28;20854;-68
2020/12/01 11:01:52;;;;;;;13.53;10.00;;;;;;;;;;5079414;28;20547;-69
2020/12/01 11:04:19;;;;;;;19.13;11.97;;;;;;;;;;5086368;28;20475;-69
2020/12/01 11:06:46;;;;;;;21.47;13.67;;;;;;;;;;5097180;28;20448;-69
2020/12/01 11:09:12;;;;;;;15.73;10.97;;;;;;;;;;5088807;28;20482;-70
2020/12/01 11:11:39;;;;;;;13.63;10.17;;;;;;;;;;5079391;28;20455;-69
2020/12/01 11:14:08;;;;;;;17.80;9.77;;;;;;;;;;5095185;28;20478;-71
2020/12/01 11:16:34;;;;;;;12.87;10.07;;;;;;;;;;5090754;28;20448;-70
2020/12/01 11:19:01;;;;;;;12.77;9.80;;;;;;;;;;5087505;28;20862;-70
2020/12/01 11:21:27;;;;;;;14.50;9.10;;;;;;;;;;5081762;28;20455;-70
2020/12/01 11:23:54;;;;;;;13.30;9.23;;;;;;;;;;5083842;28;20452;-69
2020/12/01 11:26:21;;;;;;;10.23;7.57;;;;;;;;;;5091697;28;20479;-71
2020/12/01 11:28:48;;;;;;;12.43;7.90;;;;;;;;;;5077802;28;20475;-71
2020/12/01 11:31:16;;;;;;;10.50;8.70;;;;;;;;;;5082228;28;20742;-70
2020/12/01 11:33:43;;;;;;;13.80;8.83;;;;;;;;;;5082158;28;20467;-71
2020/12/01 11:36:10;;;;;;;12.43;8.23;;;;;;;;;;5089576;28;20454;-71
2020/12/01 11:38:36;;;;;;;12.77;9.20;;;;;;;;;;5096174;28;20464;-72
2020/12/01 11:41:03;;;;;;;13.27;10.30;;;;;;;;;;5077078;28;20487;-72
2020/12/01 11:43:29;;;;;;;14.60;8.70;;;;;;;;;;5075370;28;20905;-72
2020/12/01 11:45:56;;;;;;;13.20;8.83;;;;;;;;;;5079699;28;20453;-72
2020/12/01 11:48:23;;;;;;;17.03;10.07;;;;;;;;;;5087619;28;20471;-73
2020/12/01 11:50:50;;;;;;;12.10;7.70;;;;;;;;;;5081483;28;20472;-71
2020/12/01 11:53:17;;;;;;;14.43;8.70;;;;;;;;;;5083397;28;20459;-72
2020/12/01 11:55:43;;;;;;;13.40;10.37;;;;;;;;;;5073037;28;20465;-72
2020/12/01 11:58:10;;;;;;;11.93;9.00;;;;;;;;;;5078742;28;20473;-73
2020/12/01 12:00:37;;;;;;;12.93;9.97;;;;;;;;;;5077131;28;20869;-72
2020/12/01 12:03:03;;;;;;;13.43;10.43;;;;;;;;;;5089018;28;20456;-72
2020/12/01 12:05:31;;;;;;;13.37;10.17;;;;;;;;;;5083902;28;20448;-73
2020/12/01 12:07:57;;;;;;;12.03;9.07;;;;;;;;;;5100243;28;20440;-74
2020/12/01 12:10:24;;;;;;;14.10;9.87;;;;;;;;;;5091108;28;20866;-73
2020/12/01 12:12:50;;;;;;;15.83;9.83;;;;;;;;;;5079439;28;20452;-73
2020/12/01 12:15:17;;;;;;;11.60;9.30;;;;;;;;;;5078053;28;20566;-73
2020/12/01 12:17:44;;;;;;;11.10;8.83;;;;;;;;;;5083093;28;20463;-74
2020/12/01 12:20:10;;;;;;;12.40;8.80;;;;;;;;;;5087130;28;20472;-75
2020/12/01 12:22:38;;;;;;;12.13;8.60;;;;;;;;;;5084179;28;20448;-75
2020/12/01 12:25:04;;;;;;;13.53;9.53;;;;;;;;;;5083669;28;20447;-74
2020/12/01 12:27:32;;;;;;;14.87;10.07;;;;;;;;;;5093665;28;20513;-74
2020/12/01 12:29:58;;;;;;;13.10;9.50;;;;;;;;;;5085605;28;20893;-74
2020/12/01 12:32:25;;;;;;;12.37;9.37;;;;;;;;;;5089420;28;20455;-74
2020/12/01 12:34:52;;;;;;;13.00;8.43;;;;;;;;;;5085897;28;20451;-73
2020/12/01 12:37:18;;;;;;;14.07;9.10;;;;;;;;;;5088492;28;20448;-74
2020/12/01 12:39:46;;;;;;;13.73;9.17;;;;;;;;;;5083470;28;20487;-74
2020/12/01 12:42:12;;;;;;;13.20;9.77;;;;;;;;;;5088007;28;20501;-73
2020/12/01 12:44:39;;;;;;;13.47;9.87;;;;;;;;;;5095744;28;20462;-74
2020/12/01 12:47:06;;;;;;;15.37;10.27;;;;;;;;;;5087633;28;20452;-74
2020/12/01 12:49:32;;;;;;;12.63;9.80;;;;;;;;;;5083473;28;21046;-74
2020/12/01 12:51:59;;;;;;;14.57;10.33;;;;;;;;;;5083098;28;20460;-74
2020/12/01 12:54:26;;;;;;;11.00;8.60;;;;;;;;;;5084732;28;20452;-75
2020/12/01 12:56:53;;;;;;;11.83;8.57;;;;;;;;;;5088486;28;21226;-75
2020/12/01 12:59:20;;;;;;;13.27;9.40;;;;;;;;;;5092631;28;20482;-75
2020/12/01 13:01:47;;;;;;;11.27;9.03;;;;;;;;;;5083720;28;20475;-75
2020/12/01 13:04:13;;;;;;;14.60;9.27;;;;;;;;;;5097713;28;20550;-75
2020/12/01 13:06:40;;;;;;;9.60;7.60;;;;;;;;;;5108479;28;20823;-76
2020/12/01 13:09:07;;;;;;;11.73;9.60;;;;;;;;;;5086671;28;20472;-75
2020/12/01 13:11:33;;;;;;;12.83;8.80;;;;;;;;;;5102218;28;20454;-75
2020/12/01 13:14:01;;;;;;;11.53;8.80;;;;;;;;;;5088418;28;20975;-75
2020/12/01 13:16:28;;;;;;;11.33;8.77;;;;;;;;;;5093382;28;20456;-75
2020/12/01 13:18:54;;;;;;;12.30;9.10;;;;;;;;;;5091741;28;20507;-76
2020/12/01 13:21:21;;;;;;;14.90;9.63;;;;;;;;;;5091519;28;20476;-76
2020/12/01 13:23:48;;;;;;;12.00;8.90;;;;;;;;;;5093248;28;20456;-76
2020/12/01 13:26:17;;;;;;;14.50;10.40;;;;;;;;;;5094011;28;20460;-75
2020/12/01 13:28:44;;;;;;;12.20;9.10;;;;;;;;;;5088859;28;20464;-75
2020/12/01 13:31:11;;;;;;;11.10;8.70;;;;;;;;;;5084533;28;20445;-75
2020/12/01 13:33:38;;;;;;;12.37;8.97;;;;;;;;;;5086202;28;20459;-75
2020/12/01 13:36:05;;;;;;;14.27;10.50;;;;;;;;;;5082680;28;20448;-75
2020/12/01 13:38:31;;;;;;;12.70;9.60;;;;;;;;;;5090555;28;20452;-75
2020/12/01 13:40:58;;;;;;;14.93;10.30;;;;;;;;;;5086015;28;20496;-75
2020/12/01 13:43:24;;;;;;;15.43;9.37;;;;;;;;;;5085585;28;20451;-75
2020/12/01 13:45:51;;;;;;;15.87;10.20;;;;;;;;;;5084701;28;20444;-75
2020/12/01 13:48:19;;;;;;;11.60;9.03;;;;;;;;;;5085138;28;20804;-75
2020/12/01 13:50:45;;;;;;;16.43;9.97;;;;;;;;;;5087811;28;20432;-75
2020/12/01 13:53:13;;;;;;;12.80;9.67;;;;;;;;;;5080737;28;20443;-75
2020/12/01 13:55:40;;;;;;;15.73;10.30;;;;;;;;;;5089622;28;20812;-74
2020/12/01 13:58:07;;;;;;;11.30;8.70;;;;;;;;;;5089441;28;20479;-74
2020/12/01 14:00:34;;;;;;;12.70;8.87;;;;;;;;;;5086988;28;20496;-74
2020/12/01 14:03:01;;;;;;;13.07;9.30;;;;;;;;;;5085218;28;20456;-74
2020/12/01 14:05:29;;;;;;;14.40;10.80;;;;;;;;;;5088838;28;20540;-74
2020/12/01 14:07:56;;;;;;;12.93;9.50;;;;;;;;;;5088221;28;20452;-76
2020/12/01 14:10:23;;;;;;;11.93;9.00;;;;;;;;;;5087689;28;20482;-74
2020/12/01 14:12:50;;;;;;;10.83;9.03;;;;;;;;;;5074820;28;20461;-75
2020/12/01 14:15:17;;;;;;;15.53;11.23;;;;;;;;;;5088705;28;20509;-74
2020/12/01 14:17:44;;;;;;;18.13;12.47;;;;;;;;;;5086422;28;20464;-74
2020/12/01 14:20:12;;;;;;;19.47;12.90;;;;;;;;;;5088393;28;20494;-75
2020/12/01 14:22:40;;;;;;;20.33;12.90;;;;;;;;;;5083843;28;20479;-74
2020/12/01 14:25:08;;;;;;;19.07;13.17;;;;;;;;;;5092568;28;20820;-74
2020/12/01 14:27:35;;;;;;;16.73;12.30;;;;;;;;;;5083121;28;20460;-74
2020/12/01 14:30:01;;;;;;;19.10;13.80;;;;;;;;;;5088711;28;20468;-74
2020/12/01 14:32:28;;;;;;;23.03;14.60;;;;;;;;;;5081692;28;20460;-73
2020/12/01 14:34:54;;;;;;;18.93;13.17;;;;;;;;;;5082358;28;20447;-73
2020/12/01 14:37:22;;;;;;;17.77;13.33;;;;;;;;;;5082724;28;20449;-74
2020/12/01 14:39:50;;;;;;;21.23;14.37;;;;;;;;;;5087396;28;20480;-73
2020/12/01 14:42:17;;;;;;;18.23;13.37;;;;;;;;;;5086739;28;20452;-73
2020/12/01 14:44:44;;;;;;;20.97;14.77;;;;;;;;;;5080367;28;20449;-73
2020/12/01 14:47:19;;;;;;;18.30;13.10;;;;;;;;;;5082882;28;20449;-73
2020/12/01 14:49:54;;;;;;;19.50;13.13;;;;;;;;;;5071173;28;20472;-73
2020/12/01 14:52:25;;;;;;;22.70;16.00;;;;;;;;;;5087694;28;20451;-74
2020/12/01 14:54:57;;;;;;;19.10;12.90;;;;;;;;;;5080557;28;20456;-73
2020/12/01 14:57:30;;;;;;;22.50;15.47;;;;;;;;;;5079227;28;20979;-73
2020/12/01 15:00:07;;;;;;;22.27;15.67;;;;;;;;;;5090907;28;20487;-73
2020/12/01 15:02:48;;;;;;;23.23;16.10;;;;;;;;;;5094760;28;20444;-73
2020/12/01 15:05:30;;;;;;;25.10;14.77;;;;;;;;;;5094919;28;20820;-73
2020/12/01 15:08:03;;;;;;;19.30;14.37;;;;;;;;;;5082284;28;20444;-73